createdAt,value
2022-09-27T00:01:07.839Z,271.92
2022-09-27T00:03:34.495Z,269.30
2022-09-27T00:06:09.017Z,270.42
2022-09-27T00:08:37.028Z,265.40
2022-09-27T00:11:06.345Z,275.23
2022-09-27T00:13:33.427Z,274.95
2022-09-27T00:16:05.362Z,256.48
2022-09-27T00:18:33.514Z,262.93
2022-09-27T00:21:11.371Z,263.98
2022-09-27T00:23:39.308Z,261.85
2022-09-27T00:26:08.129Z,261.17
2022-09-27T00:28:34.930Z,266.20
2022-09-27T00:31:01.987Z,257.73
2022-09-27T00:33:28.676Z,261.63
2022-09-27T00:35:55.376Z,268.60
2022-09-27T00:38:22.007Z,263.60
2022-09-27T00:40:48.677Z,271.63
2022-09-27T00:43:22.444Z,263.55
2022-09-27T00:46:03.402Z,266.40
2022-09-27T00:48:33.031Z,255.88
2022-09-27T00:51:03.517Z,258.60
2022-09-27T00:53:37.826Z,265.15
2022-09-27T00:56:12.639Z,268.15
2022-09-27T00:58:45.085Z,257.08
2022-09-27T01:01:14.131Z,264.60
2022-09-27T01:03:45.215Z,258.10
2022-09-27T01:06:12.367Z,265.80
2022-09-27T01:08:39.329Z,264.02
2022-09-27T01:11:09.005Z,257.80
2022-09-27T01:13:49.194Z,249.45
2022-09-27T01:16:26.632Z,252.27
2022-09-27T01:19:16.606Z,256.40
2022-09-27T01:22:02.136Z,254.33
2022-09-27T01:24:48.909Z,251.13
2022-09-27T01:27:41.407Z,241.85
2022-09-27T01:30:29.662Z,246.20
2022-09-27T01:33:33.118Z,245.20
2022-09-27T01:36:32.112Z,247.55
2022-09-27T01:39:21.311Z,245.05
2022-09-27T01:42:22.967Z,242.05
2022-09-27T01:45:03.615Z,240.10
2022-09-27T01:47:45.436Z,246.53
2022-09-27T01:50:47.141Z,245.02
2022-09-27T01:53:34.287Z,238.95
2022-09-27T01:56:40.932Z,231.57
2022-09-27T01:59:21.077Z,240.40
2022-09-27T02:02:00.256Z,238.63
2022-09-27T02:04:38.809Z,236.88
2022-09-27T02:07:23.856Z,235.95
2022-09-27T02:09:59.754Z,241.90
2022-09-27T02:12:46.220Z,241.15
2022-09-27T02:15:15.214Z,242.73
2022-09-27T02:17:53.264Z,239.18
2022-09-27T02:20:30.162Z,240.98
2022-09-27T02:23:21.158Z,238.75
2022-09-27T02:26:02.747Z,237.68
2022-09-27T02:28:45.770Z,232.30
2022-09-27T02:31:20.226Z,234.87
2022-09-27T02:33:52.423Z,233.57
2022-09-27T02:36:20.261Z,235.48
2022-09-27T02:38:47.223Z,225.38
2022-09-27T02:41:18.697Z,233.52
2022-09-27T02:43:49.821Z,223.23
2022-09-27T02:46:53.159Z,227.20
2022-09-27T02:49:30.431Z,227.57
2022-09-27T02:52:50.901Z,239.13
2022-09-27T02:55:20.677Z,231.50
2022-09-27T02:58:31.824Z,238.50
2022-09-27T03:01:35.107Z,233.40
2022-09-27T03:04:38.478Z,245.25
2022-09-27T03:07:06.123Z,238.70
2022-09-27T03:09:48.027Z,236.98
2022-09-27T03:12:22.451Z,246.50
2022-09-27T03:14:49.707Z,239.77
2022-09-27T03:17:51.592Z,237.07
2022-09-27T03:20:31.453Z,230.20
2022-09-27T03:23:24.334Z,239.70
2022-09-27T03:25:51.817Z,237.23
2022-09-27T03:28:19.014Z,236.05
2022-09-27T03:30:46.505Z,238.45
2022-09-27T03:33:22.591Z,233.40
2022-09-27T03:35:57.468Z,236.23
2022-09-27T03:38:24.173Z,238.57
2022-09-27T03:40:51.113Z,232.20
2022-09-27T03:43:17.801Z,231.52
2022-09-27T03:45:47.216Z,220.30
2022-09-27T03:48:14.329Z,229.45
2022-09-27T03:50:41.216Z,223.50
2022-09-27T03:53:08.158Z,231.60
2022-09-27T03:55:35.651Z,227.45
2022-09-27T03:58:02.742Z,232.43
2022-09-27T04:00:32.687Z,229.50
2022-09-27T04:03:00.250Z,213.18
2022-09-27T04:05:28.806Z,224.48
2022-09-27T04:08:02.427Z,221.98
2022-09-27T04:10:31.686Z,219.68
2022-09-27T04:12:58.692Z,226.40
2022-09-27T04:15:29.218Z,217.57
2022-09-27T04:18:14.691Z,218.38
2022-09-27T04:21:07.231Z,219.48
2022-09-27T04:23:36.529Z,212.65
2022-09-27T04:26:03.698Z,206.10
2022-09-27T04:28:54.537Z,212.57
2022-09-27T04:31:22.297Z,216.07
2022-09-27T04:34:16.369Z,210.63
2022-09-27T04:36:43.139Z,198.77
2022-09-27T04:39:15.131Z,198.75
2022-09-27T04:41:45.015Z,194.40
2022-09-27T04:44:11.905Z,186.25
2022-09-27T04:46:41.327Z,184.32
2022-09-27T04:49:08.125Z,181.15
2022-09-27T04:51:36.341Z,186.68
2022-09-27T04:54:04.800Z,188.13
2022-09-27T04:56:34.869Z,189.38
2022-09-27T04:59:08.289Z,197.73
2022-09-27T05:01:37.115Z,193.20
2022-09-27T05:04:42.286Z,196.90
2022-09-27T05:07:10.112Z,195.45
2022-09-27T05:09:42.413Z,199.02
2022-09-27T05:12:09.269Z,222.75
2022-09-27T05:14:54.927Z,203.90
2022-09-27T05:17:43.773Z,195.32
2022-09-27T05:20:10.772Z,200.65
2022-09-27T05:22:44.088Z,189.53
2022-09-27T05:25:11.447Z,188.20
2022-09-27T05:27:38.927Z,186.85
2022-09-27T05:30:08.015Z,185.52
2022-09-27T05:32:50.677Z,190.70
2022-09-27T05:35:26.418Z,186.35
2022-09-27T05:37:59.261Z,192.10
2022-09-27T05:40:44.670Z,184.18
2022-09-27T05:43:12.125Z,180.93
2022-09-27T05:45:41.076Z,177.85
2022-09-27T05:48:08.264Z,184.35
2022-09-27T05:50:45.708Z,180.63
2022-09-27T05:53:13.403Z,192.90
2022-09-27T05:55:41.291Z,183.80
2022-09-27T05:58:10.293Z,192.77
2022-09-27T06:00:48.344Z,180.85
2022-09-27T06:03:51.373Z,178.90
2022-09-27T06:06:38.417Z,186.63
2022-09-27T06:09:11.058Z,176.77
2022-09-27T06:11:40.646Z,177.73
2022-09-27T06:14:11.685Z,174.23
2022-09-27T06:16:51.009Z,175.40
2022-09-27T06:19:17.787Z,180.07
2022-09-27T06:21:44.440Z,177.40
2022-09-27T06:24:12.661Z,178.68
2022-09-27T06:26:39.552Z,176.73
2022-09-27T06:29:30.312Z,185.80
2022-09-27T06:32:01.132Z,196.40
2022-09-27T06:34:41.699Z,197.07
2022-09-27T06:37:08.390Z,193.35
2022-09-27T06:39:35.226Z,194.63
2022-09-27T06:42:31.116Z,185.20
2022-09-27T06:45:10.744Z,188.73
2022-09-27T06:47:57.043Z,212.53
2022-09-27T06:50:31.112Z,192.10
2022-09-27T06:52:57.852Z,188.57
2022-09-27T06:55:25.342Z,187.30
2022-09-27T06:58:15.330Z,187.23
2022-09-27T07:00:54.371Z,185.95
2022-09-27T07:03:43.238Z,192.10
2022-09-27T07:06:24.286Z,193.43
2022-09-27T07:09:08.546Z,198.60
2022-09-27T07:11:36.758Z,198.77
2022-09-27T07:14:08.175Z,188.20
2022-09-27T07:16:34.990Z,197.68
2022-09-27T07:19:05.521Z,205.32
2022-09-27T07:21:33.238Z,203.27
2022-09-27T07:24:00.495Z,186.47
2022-09-27T07:26:27.721Z,191.60
2022-09-27T07:28:54.805Z,242.57
2022-09-27T07:31:22.598Z,208.10
2022-09-27T07:33:49.262Z,188.68
2022-09-27T07:36:16.012Z,189.68
2022-09-27T07:38:44.739Z,189.52
2022-09-27T07:41:14.135Z,190.93
2022-09-27T07:43:45.096Z,186.47
2022-09-27T07:46:13.464Z,175.35
2022-09-27T07:48:51.699Z,181.23
2022-09-27T07:51:37.021Z,185.02
2022-09-27T07:54:31.422Z,188.68
2022-09-27T07:57:16.642Z,188.43
2022-09-27T07:59:47.698Z,204.98
2022-09-27T08:02:18.337Z,178.52
2022-09-27T08:04:49.103Z,185.63
2022-09-27T08:07:16.363Z,179.75
2022-09-27T08:09:45.896Z,183.57
2022-09-27T08:12:13.274Z,181.55
2022-09-27T08:14:45.082Z,185.68
2022-09-27T08:17:19.386Z,185.85
2022-09-27T08:20:06.943Z,191.43
2022-09-27T08:23:06.182Z,187.35
2022-09-27T08:25:40.094Z,190.57
2022-09-27T08:28:27.377Z,200.03
2022-09-27T08:31:00.245Z,198.45
2022-09-27T08:33:31.945Z,196.40
2022-09-27T08:35:59.487Z,187.48
2022-09-27T08:38:26.161Z,188.35
2022-09-27T08:41:20.369Z,198.98
2022-09-27T08:44:04.818Z,176.43
2022-09-27T08:47:08.943Z,189.27
2022-09-27T08:49:38.733Z,190.95
2022-09-27T08:52:13.189Z,181.80
2022-09-27T08:54:40.294Z,183.00
2022-09-27T08:57:16.957Z,190.90
2022-09-27T08:59:55.095Z,187.13
2022-09-27T09:02:27.436Z,198.70
2022-09-27T09:05:03.167Z,202.43
2022-09-27T09:07:48.059Z,243.10
2022-09-27T09:10:45.664Z,197.70
2022-09-27T09:13:41.135Z,195.88
2022-09-27T09:16:08.551Z,199.15
2022-09-27T09:19:01.218Z,204.60
2022-09-27T09:21:54.946Z,213.33
2022-09-27T09:24:37.018Z,218.73
2022-09-27T09:27:33.874Z,218.85
2022-09-27T09:30:13.038Z,220.40
2022-09-27T09:33:08.237Z,234.90
2022-09-27T09:35:39.402Z,236.85
2022-09-27T09:38:18.509Z,226.45
2022-09-27T09:40:52.076Z,233.03
2022-09-27T09:43:31.202Z,233.43
2022-09-27T09:46:10.394Z,221.40
2022-09-27T09:48:42.083Z,226.77
2022-09-27T09:51:19.456Z,223.02
2022-09-27T09:53:51.569Z,212.55
2022-09-27T09:56:22.714Z,228.27
2022-09-27T09:59:32.602Z,243.83
2022-09-27T10:02:15.032Z,225.77
2022-09-27T10:04:41.866Z,218.55
2022-09-27T10:07:08.661Z,218.02
2022-09-27T10:09:36.494Z,219.97
2022-09-27T10:12:22.079Z,223.90
2022-09-27T10:14:51.887Z,273.92
2022-09-27T10:17:25.366Z,229.10
2022-09-27T10:19:54.208Z,225.32
2022-09-27T10:22:25.159Z,200.32
2022-09-27T10:25:08.010Z,218.88
2022-09-27T10:27:56.136Z,214.50
2022-09-27T10:30:33.014Z,208.10
2022-09-27T10:33:07.752Z,207.02
2022-09-27T10:35:45.095Z,193.05
2022-09-27T10:38:20.478Z,208.10
2022-09-27T10:40:53.183Z,202.50
2022-09-27T10:43:29.388Z,192.80
2022-09-27T10:46:23.669Z,205.07
2022-09-27T10:49:26.825Z,196.43
2022-09-27T10:52:06.440Z,198.57
2022-09-27T10:54:37.798Z,187.25
2022-09-27T10:57:23.125Z,192.75
2022-09-27T10:59:56.506Z,189.70
2022-09-27T11:02:35.818Z,199.02
2022-09-27T11:05:15.625Z,206.93
2022-09-27T11:07:55.518Z,204.32
2022-09-27T11:10:37.345Z,211.20
2022-09-27T11:13:12.492Z,212.82
2022-09-27T11:16:07.541Z,208.50
2022-09-27T11:19:04.505Z,222.85
2022-09-27T11:21:40.135Z,214.48
2022-09-27T11:24:32.599Z,217.05
2022-09-27T11:27:33.158Z,233.27
2022-09-27T11:30:09.749Z,229.65
2022-09-27T11:34:02.369Z,231.93
2022-09-27T11:36:57.742Z,231.88
2022-09-27T11:39:51.178Z,250.02
2022-09-27T11:42:33.300Z,234.90
2022-09-27T11:45:56.378Z,230.10
2022-09-27T11:48:27.554Z,239.25
2022-09-27T11:51:18.967Z,238.60
2022-09-27T11:53:51.635Z,231.20
2022-09-27T11:56:29.480Z,226.65
2022-09-27T11:59:04.994Z,214.65
2022-09-27T12:01:50.287Z,226.05
2022-09-27T12:04:44.862Z,227.60
2022-09-27T12:07:25.531Z,222.30
2022-09-27T12:10:00.209Z,229.27
2022-09-27T12:12:31.969Z,243.60
2022-09-27T12:15:07.167Z,207.80
2022-09-27T12:17:43.199Z,229.98
2022-09-27T12:20:24.598Z,208.43
2022-09-27T12:22:59.934Z,202.10
2022-09-27T12:26:03.147Z,210.48
2022-09-27T12:28:54.222Z,208.15
2022-09-27T12:31:30.497Z,212.57
2022-09-27T12:34:19.334Z,222.38
2022-09-27T12:36:56.030Z,238.25
2022-09-27T12:39:41.782Z,223.50
2022-09-27T12:42:32.022Z,215.30
2022-09-27T12:45:01.913Z,218.70
2022-09-27T12:48:07.028Z,207.25
2022-09-27T12:50:46.566Z,211.10
2022-09-27T12:53:23.367Z,229.93
2022-09-27T12:56:17.214Z,216.18
2022-09-27T12:59:02.730Z,200.82
2022-09-27T13:01:59.973Z,196.00
2022-09-27T13:04:38.673Z,201.07
2022-09-27T13:07:17.759Z,237.23
2022-09-27T13:10:01.807Z,216.32
2022-09-27T13:12:32.267Z,206.02
2022-09-27T13:15:15.062Z,205.50
2022-09-27T13:17:42.370Z,213.55
2022-09-27T13:20:31.049Z,205.07
2022-09-27T13:23:00.006Z,204.32
2022-09-27T13:25:55.454Z,206.57
2022-09-27T13:28:48.148Z,193.00
2022-09-27T13:31:59.883Z,214.18
2022-09-27T13:34:41.643Z,184.75
2022-09-27T13:37:28.847Z,190.52
2022-09-27T13:40:15.141Z,179.88
2022-09-27T13:43:11.274Z,186.98
2022-09-27T13:45:56.276Z,182.27
2022-09-27T13:48:43.300Z,192.20
2022-09-27T13:51:16.693Z,197.05
2022-09-27T13:53:55.108Z,200.67
2022-09-27T13:56:37.821Z,191.32
2022-09-27T13:59:13.761Z,202.52
2022-09-27T14:02:16.868Z,206.02
2022-09-27T14:04:51.508Z,219.57
2022-09-27T14:07:26.801Z,263.27
2022-09-27T14:10:00.473Z,240.13
2022-09-27T14:12:36.689Z,244.13
2022-09-27T14:15:14.025Z,247.68
2022-09-27T14:17:45.980Z,231.00
2022-09-27T14:20:52.636Z,264.70
2022-09-27T14:23:39.498Z,241.02
2022-09-27T14:26:06.564Z,251.18
2022-09-27T14:28:41.683Z,238.20
2022-09-27T14:31:31.378Z,231.83
2022-09-27T14:34:13.142Z,224.83
2022-09-27T14:37:04.006Z,206.70
2022-09-27T14:39:37.948Z,223.52
2022-09-27T14:42:28.511Z,217.50
2022-09-27T14:45:01.492Z,223.35
2022-09-27T14:47:32.274Z,228.52
2022-09-27T14:50:16.948Z,232.32
2022-09-27T14:52:43.726Z,229.40
2022-09-27T14:55:19.113Z,212.57
2022-09-27T14:57:56.687Z,208.02
2022-09-27T15:00:26.247Z,190.35
2022-09-27T15:02:55.885Z,198.82
2022-09-27T15:05:27.305Z,215.05
2022-09-27T15:07:58.458Z,219.18
2022-09-27T15:10:27.829Z,233.85
2022-09-27T15:13:01.149Z,201.93
2022-09-27T15:15:33.850Z,240.30
2022-09-27T15:18:01.826Z,231.85
2022-09-27T15:20:32.332Z,208.73
2022-09-27T15:23:03.659Z,198.48
2022-09-27T15:25:36.926Z,204.35
2022-09-27T15:28:20.127Z,192.63
2022-09-27T15:30:57.335Z,188.15
2022-09-27T15:33:27.209Z,197.00
2022-09-27T15:35:56.275Z,196.73
2022-09-27T15:38:25.479Z,189.80
2022-09-27T15:40:52.123Z,188.70
2022-09-27T15:51:51.677Z,176.57
2022-09-27T15:54:22.371Z,165.75
2022-09-27T15:56:55.038Z,173.77
2022-09-27T15:59:27.837Z,177.25
2022-09-27T16:01:56.792Z,191.97
2022-09-27T16:04:23.552Z,189.98
2022-09-27T16:06:50.403Z,183.37
2022-09-27T16:09:18.930Z,194.67
2022-09-27T16:11:47.573Z,181.48
2022-09-27T16:14:18.290Z,168.10
2022-09-27T16:16:47.636Z,170.13
2022-09-27T16:19:14.311Z,183.80
2022-09-27T16:21:42.912Z,185.88
2022-09-27T16:24:12.638Z,179.38
2022-09-27T16:26:41.087Z,208.80
2022-09-27T16:29:13.608Z,199.15
2022-09-27T16:31:41.295Z,201.52
2022-09-27T16:34:13.769Z,190.93
2022-09-27T16:36:41.873Z,179.57
2022-09-27T16:39:12.767Z,187.00
2022-09-27T16:41:43.501Z,168.27
2022-09-27T16:44:12.922Z,162.73
2022-09-27T16:46:41.505Z,174.38
2022-09-27T16:49:28.790Z,208.23
2022-09-27T16:52:01.356Z,196.07
2022-09-27T16:54:29.408Z,185.88
2022-09-27T16:56:57.750Z,198.18
2022-09-27T16:59:27.716Z,202.70
2022-09-27T17:01:58.078Z,225.32
2022-09-27T17:04:27.603Z,196.87
2022-09-27T17:06:56.369Z,193.82
2022-09-27T17:09:23.163Z,198.15
2022-09-27T17:11:50.252Z,196.70
2022-09-27T17:14:18.024Z,194.35
2022-09-27T17:16:46.011Z,189.88
2022-09-27T17:19:14.283Z,178.48
2022-09-27T17:21:42.386Z,180.23
2022-09-27T17:24:09.679Z,177.65
2022-09-27T17:26:36.637Z,169.90
2022-09-27T17:29:07.397Z,198.15
2022-09-27T17:31:37.472Z,181.73
2022-09-27T17:34:04.561Z,179.10
2022-09-27T17:36:37.718Z,188.00
2022-09-27T17:39:05.211Z,202.65
2022-09-27T17:41:37.589Z,185.87
2022-09-27T17:44:09.643Z,182.68
2022-09-27T17:46:37.279Z,186.35
2022-09-27T17:49:23.182Z,183.52
2022-09-27T17:51:52.622Z,186.35
2022-09-27T17:54:22.685Z,182.80
2022-09-27T17:56:52.169Z,178.90
2022-09-27T17:59:18.858Z,181.00
2022-09-27T18:01:47.761Z,180.83
2022-09-27T18:04:17.108Z,179.40
2022-09-27T18:06:46.584Z,176.25
2022-09-27T18:09:16.039Z,180.10
2022-09-27T18:11:44.250Z,180.73
2022-09-27T18:14:11.228Z,174.27
2022-09-27T18:16:42.868Z,181.90
2022-09-27T18:19:17.050Z,184.83
2022-09-27T18:21:45.240Z,171.15
2022-09-27T18:24:14.071Z,171.75
2022-09-27T18:26:41.370Z,170.85
2022-09-27T18:29:11.663Z,177.30
2022-09-27T18:31:40.173Z,179.10
2022-09-27T18:34:07.667Z,180.88
2022-09-27T18:36:34.466Z,189.95
2022-09-27T18:39:04.400Z,173.98
2022-09-27T18:41:35.285Z,171.25
2022-09-27T18:44:06.496Z,180.77
2022-09-27T18:46:36.847Z,187.18
2022-09-27T18:49:06.178Z,181.52
2022-09-27T18:51:37.902Z,189.90
2022-09-27T18:56:59.917Z,173.00
2022-09-27T18:59:31.993Z,173.73
2022-09-27T19:01:58.676Z,177.77
2022-09-27T19:04:28.323Z,167.90
2022-09-27T19:06:56.541Z,171.60
2022-09-27T19:09:26.988Z,170.70
2022-09-27T19:11:53.976Z,173.93
2022-09-27T19:14:22.568Z,179.40
2022-09-27T19:16:49.613Z,174.35
2022-09-27T19:19:17.273Z,171.30
2022-09-27T19:21:44.534Z,167.97
2022-09-27T19:24:11.794Z,168.15
2022-09-27T19:26:38.593Z,175.90
2022-09-27T19:29:07.315Z,178.70
2022-09-27T19:31:38.044Z,187.60
2022-09-27T19:34:04.803Z,192.38
2022-09-27T19:36:34.150Z,182.80
2022-09-27T19:39:03.782Z,180.85
2022-09-27T19:41:31.258Z,185.10
2022-09-27T19:43:59.646Z,192.18
2022-09-27T19:46:27.017Z,192.95
2022-09-27T19:48:57.111Z,187.60
2022-09-27T19:51:26.141Z,195.25
2022-09-27T19:53:57.033Z,194.50
2022-09-27T19:56:24.284Z,196.90
2022-09-27T19:58:51.199Z,194.43
2022-09-27T20:01:23.126Z,201.43
2022-09-27T20:03:53.644Z,196.05
2022-09-27T20:06:23.721Z,203.95
2022-09-27T20:08:53.567Z,198.07
2022-09-27T20:11:23.654Z,197.77
2022-09-27T20:13:52.871Z,206.30
2022-09-27T20:16:24.580Z,201.75
2022-09-27T20:18:56.155Z,205.45
2022-09-27T20:21:35.444Z,207.68
2022-09-27T20:24:05.757Z,194.90
2022-09-27T20:26:38.010Z,199.48
2022-09-27T20:29:06.391Z,196.90
2022-09-27T20:32:01.527Z,196.07
2022-09-27T20:34:28.995Z,202.03
2022-09-27T20:36:55.919Z,209.27
2022-09-27T20:39:23.772Z,214.77
2022-09-27T20:41:51.051Z,217.50
2022-09-27T20:44:21.272Z,218.60
2022-09-27T20:46:50.279Z,228.43
2022-09-27T20:52:02.476Z,229.10
2022-09-27T20:54:29.617Z,225.23
2022-09-27T20:56:57.202Z,225.77
2022-09-27T20:59:25.259Z,229.98
2022-09-27T21:01:53.476Z,234.05
2022-09-27T21:04:27.292Z,236.82
2022-09-27T21:06:54.216Z,244.98
2022-09-27T21:09:21.245Z,249.55
2022-09-27T21:11:49.509Z,241.18
2022-09-27T21:14:17.664Z,247.02
2022-09-27T21:16:44.681Z,244.95
2022-09-27T21:19:11.600Z,260.85
2022-09-27T21:21:39.081Z,247.02
2022-09-27T21:24:06.130Z,244.15
2022-09-27T21:26:34.027Z,246.98
2022-09-27T21:29:09.533Z,250.60
2022-09-27T21:31:41.663Z,251.40
2022-09-27T21:34:08.620Z,255.75
2022-09-27T21:36:38.267Z,255.67
2022-09-27T21:39:09.661Z,250.15
2022-09-27T21:41:39.791Z,246.13
2022-09-27T21:44:09.636Z,251.20
2022-09-27T21:46:40.436Z,249.35
2022-09-27T21:49:08.174Z,252.32
2022-09-27T21:51:41.316Z,254.13
2022-09-27T21:54:11.256Z,262.75
2022-09-27T21:56:39.521Z,264.00
2022-09-27T21:59:09.511Z,262.85
2022-09-27T22:01:37.361Z,264.35
2022-09-27T22:04:09.133Z,263.83
2022-09-27T22:06:44.952Z,273.42
2022-09-27T22:09:19.133Z,269.13
2022-09-27T22:11:50.210Z,261.35
2022-09-27T22:14:18.161Z,254.20
2022-09-27T22:16:45.172Z,257.80
2022-09-27T22:19:15.479Z,267.13
2022-09-27T22:21:45.173Z,262.63
2022-09-27T22:24:15.025Z,262.92
2022-09-27T22:26:45.484Z,271.17
2022-09-27T22:29:15.581Z,256.90
2022-09-27T22:31:42.391Z,271.42
2022-09-27T22:34:20.594Z,248.77
2022-09-27T22:36:47.185Z,254.90
2022-09-27T22:39:13.938Z,253.43
2022-09-27T22:41:42.783Z,276.75
2022-09-27T22:44:09.396Z,278.25
2022-09-27T22:46:38.501Z,273.83
2022-09-27T22:49:05.092Z,276.17
2022-09-27T22:51:31.618Z,279.75
2022-09-27T22:53:58.310Z,280.52
2022-09-27T22:56:25.333Z,285.77
2022-09-27T22:58:51.971Z,287.40
2022-09-27T23:01:21.553Z,282.15
2022-09-27T23:03:55.735Z,273.57
2022-09-27T23:06:23.293Z,274.70
2022-09-27T23:08:51.297Z,282.52
2022-09-27T23:11:20.355Z,276.40
2022-09-27T23:13:48.452Z,277.63
2022-09-27T23:16:20.881Z,275.70
2022-09-27T23:18:50.335Z,268.00
2022-09-27T23:21:16.934Z,276.27
2022-09-27T23:23:45.196Z,282.13
2022-09-27T23:26:15.007Z,285.95
2022-09-27T23:28:42.356Z,285.73
2022-09-27T23:31:08.964Z,286.27
2022-09-27T23:33:43.763Z,287.65
2022-09-27T23:36:16.848Z,293.27
2022-09-27T23:38:45.607Z,287.05
2022-09-27T23:41:13.402Z,292.33
2022-09-27T23:43:40.028Z,293.10
2022-09-27T23:46:09.108Z,289.00
2022-09-27T23:48:39.879Z,289.42
2022-09-27T23:51:08.877Z,291.92
2022-09-27T23:53:36.412Z,280.95
2022-09-27T23:56:05.794Z,281.55
2022-09-27T23:58:40.527Z,286.17
